KCMH Airport Diagram

We have created a template for each of the higher traffic airports in the vZID airspace. They include KCMH, KCRW, KCVG, KDAY, KIND, KLEX and KSDF. You wil find usefull information including the airport diagram, weather, and specific airport procedures.

KCMH Weather

[Source: ADDS]
METAR
KCMH 241551Z 20008KT 10SM CLR 07/M03 A2997 RMK AO2 SLP153 T00671028 =
TAF
KCMH 241130Z 2412/2512 VRB04KT P6SM SKC FM241400 18006KT P6SM FEW250 FM241600 19010G18KT P6SM SCT250 FM250200 19009KT P6SM BKN250 WS020/22040KT FM250800 22010KT P6SM BKN100 =
JSN Epic template designed by JoomlaShine.com